Time;durP1;ratioP1;P1;durP2;ratioP2;P2;SDS_P1;SDS_P2;PMS_P1;PMS_P2;Temp;Humidity;BMP_temperature;BMP_pressure;BME280_temperature;BME280_humidity;BME280_pressure;Samples;Min_cycle;Max_cycle;Signal;HPM_P1;HPM_P2
2023/06/23 00:02:07;;;;;;;35.20;27.27;;;19.80;99.90;;;;;;5056821;28;20211;-31
2023/06/23 00:04:36;;;;;;;32.55;25.90;;;19.80;99.90;;;;;;5042102;28;20246;-31
2023/06/23 00:07:09;;;;;;;35.40;27.60;;;19.80;99.90;;;;;;5041745;28;20200;-31
2023/06/23 00:09:40;;;;;;;31.70;26.23;;;19.80;99.90;;;;;;5042179;28;20205;-32
2023/06/23 00:12:09;;;;;;;31.48;25.13;;;19.70;99.90;;;;;;5072598;28;20204;-31
2023/06/23 00:14:39;;;;;;;28.70;25.50;;;19.70;99.90;;;;;;5056344;28;20299;-31
2023/06/23 00:17:10;;;;;;;33.40;26.25;;;19.70;99.90;;;;;;5041775;28;20315;-32
2023/06/23 00:19:41;;;;;;;30.52;24.45;;;19.60;99.90;;;;;;5043744;28;20686;-31
2023/06/23 00:22:12;;;;;;;31.35;25.95;;;19.60;99.90;;;;;;5060006;28;20247;-31
2023/06/23 00:24:43;;;;;;;32.70;24.73;;;19.60;99.90;;;;;;5045906;28;20210;-32
2023/06/23 00:27:12;;;;;;;29.77;25.05;;;19.60;99.90;;;;;;5045369;28;20192;-32
2023/06/23 00:29:42;;;;;;;30.90;24.73;;;19.50;99.90;;;;;;5045283;28;20223;-31
2023/06/23 00:32:11;;;;;;;30.38;25.38;;;19.50;99.90;;;;;;5045588;28;20216;-31
2023/06/23 00:34:41;;;;;;;30.63;24.88;;;19.50;99.90;;;;;;5060447;28;20205;-32
2023/06/23 00:37:09;;;;;;;29.38;25.52;;;19.50;99.90;;;;;;5045491;28;20690;-31
2023/06/23 00:39:41;;;;;;;35.08;26.00;;;19.40;99.90;;;;;;5077496;28;20200;-31
2023/06/23 00:42:13;;;;;;;31.05;25.02;;;19.40;99.90;;;;;;5045261;28;20600;-31
2023/06/23 00:44:43;;;;;;;31.83;25.90;;;19.40;99.90;;;;;;5045344;28;20295;-31
2023/06/23 00:47:14;;;;;;;31.20;24.23;;;19.40;99.90;;;;;;5045371;28;20215;-31
2023/06/23 00:49:47;;;;;;;26.88;23.98;;;19.30;99.90;;;;;;5045325;28;20258;-31
2023/06/23 00:52:17;;;;;;;28.15;24.33;;;19.30;99.90;;;;;;5074565;28;20223;-31
2023/06/23 00:54:45;;;;;;;33.00;25.38;;;19.30;99.90;;;;;;5045255;28;20673;-31
2023/06/23 00:57:14;;;;;;;29.75;23.85;;;19.30;99.90;;;;;;5044763;28;20220;-32
2023/06/23 00:59:41;;;;;;;28.85;24.25;;;19.20;99.90;;;;;;5060272;28;20230;-32
2023/06/23 01:02:08;;;;;;;29.60;25.27;;;19.20;99.90;;;;;;5059441;28;20732;-32
2023/06/23 01:04:36;;;;;;;29.35;24.00;;;19.20;99.90;;;;;;5045346;28;20200;-32
2023/06/23 01:07:14;;;;;;;32.88;24.80;;;19.20;99.90;;;;;;5044454;28;20545;-32
2023/06/23 01:10:00;;;;;;;31.23;26.40;;;19.10;99.90;;;;;;5075998;28;20739;-32
2023/06/23 01:12:58;;;;;;;34.65;25.25;;;19.10;99.90;;;;;;5058908;28;20230;-31
2023/06/23 01:15:35;;;;;;;32.30;26.70;;;19.10;99.90;;;;;;5076257;28;20724;-32
2023/06/23 01:18:24;;;;;;;34.88;26.80;;;19.10;99.90;;;;;;5044455;28;20227;-32
2023/06/23 01:20:57;;;;;;;31.55;26.08;;;19.00;99.90;;;;;;5044082;28;20196;-32
2023/06/23 01:23:49;;;;;;;29.38;24.33;;;19.00;99.90;;;;;;5044247;28;20281;-32
2023/06/23 01:26:22;;;;;;;31.65;25.75;;;19.00;99.90;;;;;;5043980;28;20197;-32
2023/06/23 01:29:10;;;;;;;31.90;23.88;;;19.00;99.90;;;;;;5044808;28;20205;-32
2023/06/23 01:31:53;;;;;;;31.08;25.08;;;19.00;99.90;;;;;;5043316;28;20270;-32
2023/06/23 01:34:25;;;;;;;34.80;26.10;;;18.90;99.90;;;;;;5044713;28;20681;-32
2023/06/23 01:37:00;;;;;;;31.80;26.30;;;18.90;99.90;;;;;;5059168;28;20765;-32
2023/06/23 01:39:36;;;;;;;31.85;25.55;;;18.90;99.90;;;;;;5043955;28;20231;-32
2023/06/23 01:42:07;;;;;;;28.80;24.48;;;18.90;99.90;;;;;;5075503;28;20192;-32
2023/06/23 01:44:41;;;;;;;31.08;25.88;;;18.90;99.90;;;;;;5058686;28;20257;-32
2023/06/23 01:47:19;;;;;;;31.35;25.50;;;18.90;99.90;;;;;;5043525;28;20223;-32
2023/06/23 01:49:51;;;;;;;31.52;24.20;;;18.90;99.90;;;;;;5043450;28;20204;-32
2023/06/23 01:52:19;;;;;;;32.08;24.85;;;18.80;99.90;;;;;;5043778;28;20278;-32
2023/06/23 01:54:49;;;;;;;28.02;23.85;;;18.80;99.90;;;;;;5043797;28;20200;-32
2023/06/23 01:57:26;;;;;;;31.70;24.73;;;18.80;99.90;;;;;;5043400;28;20227;-32
2023/06/23 01:59:55;;;;;;;31.20;24.15;;;18.80;99.90;;;;;;5043754;28;20848;-32
2023/06/23 02:02:25;;;;;;;35.00;25.95;;;18.80;99.90;;;;;;5058269;28;20203;-32
2023/06/23 02:04:58;;;;;;;29.20;24.08;;;18.80;99.90;;;;;;5043301;28;20196;-32
2023/06/23 02:07:28;;;;;;;29.85;24.00;;;18.80;99.90;;;;;;5074274;28;20246;-32
2023/06/23 02:09:55;;;;;;;32.47;25.38;;;18.80;99.90;;;;;;5043380;28;20262;-32
2023/06/23 02:12:25;;;;;;;29.83;24.77;;;18.80;99.90;;;;;;5043447;28;20775;-32
2023/06/23 02:14:57;;;;;;;26.17;22.05;;;18.80;99.90;;;;;;5075224;28;20663;-32
2023/06/23 02:17:26;;;;;;;30.63;23.42;;;18.70;99.90;;;;;;5043589;28;20604;-32
2023/06/23 02:19:55;;;;;;;29.15;23.15;;;18.70;99.90;;;;;;5043233;28;20224;-32
2023/06/23 02:22:31;;;;;;;32.38;24.13;;;18.70;99.90;;;;;;5043221;28;20232;-32
2023/06/23 02:25:02;;;;;;;27.80;23.45;;;18.70;99.90;;;;;;5057717;28;20629;-32
2023/06/23 02:27:30;;;;;;;27.88;22.30;;;18.70;99.90;;;;;;5058647;28;20196;-32
2023/06/23 02:30:00;;;;;;;29.40;23.42;;;18.70;99.90;;;;;;5074230;28;20402;-32
2023/06/23 02:32:28;;;;;;;32.97;25.63;;;18.70;99.90;;;;;;5058031;28;20204;-32
2023/06/23 02:34:55;;;;;;;32.55;25.77;;;18.70;99.90;;;;;;5043472;28;20208;-32
2023/06/23 02:37:25;;;;;;;33.47;27.25;;;18.70;99.90;;;;;;5043013;28;20695;-32
2023/06/23 02:40:00;;;;;;;37.83;29.92;;;18.70;99.90;;;;;;5043173;28;20846;-32
2023/06/23 02:42:37;;;;;;;52.70;45.67;;;18.60;99.90;;;;;;5043058;28;20624;-32
2023/06/23 02:45:11;;;;;;;56.20;50.10;;;18.60;99.90;;;;;;5058001;28;20752;-32
2023/06/23 02:47:41;;;;;;;75.47;67.03;;;18.60;99.90;;;;;;5058084;28;20219;-32
2023/06/23 02:50:14;;;;;;;76.90;68.75;;;18.60;99.90;;;;;;5057606;28;20224;-32
2023/06/23 02:52:48;;;;;;;88.57;77.03;;;18.60;99.90;;;;;;5043228;28;20326;-32
2023/06/23 02:55:19;;;;;;;95.10;84.93;;;18.60;99.90;;;;;;5042758;28;20200;-32
2023/06/23 02:57:54;;;;;;;93.38;83.63;;;18.60;99.90;;;;;;5042766;28;20223;-32
2023/06/23 03:00:23;;;;;;;103.50;92.75;;;18.50;99.90;;;;;;5043136;28;20195;-34
2023/06/23 03:02:59;;;;;;;102.88;92.03;;;18.50;99.90;;;;;;5042733;28;20196;-32
2023/06/23 03:05:26;;;;;;;102.55;91.88;;;18.50;99.90;;;;;;5043078;28;20199;-32
2023/06/23 03:08:00;;;;;;;87.97;78.70;;;18.50;99.90;;;;;;5043093;28;20568;-32
2023/06/23 03:10:30;;;;;;;86.95;77.60;;;18.50;99.90;;;;;;5042739;28;20561;-32
2023/06/23 03:13:00;;;;;;;93.53;83.90;;;18.50;99.90;;;;;;5042961;28;20215;-33
2023/06/23 03:15:32;;;;;;;85.80;76.85;;;18.50;99.90;;;;;;5043315;28;20551;-33
2023/06/23 03:18:10;;;;;;;91.45;82.03;;;18.50;99.90;;;;;;5057172;28;20220;-32
2023/06/23 03:20:49;;;;;;;86.30;77.10;;;18.50;99.90;;;;;;5042712;28;20584;-36
2023/06/23 03:23:18;;;;;;;93.00;83.07;;;18.40;99.90;;;;;;5042508;28;20354;-41
2023/06/23 03:25:54;;;;;;;95.82;85.43;;;18.40;99.90;;;;;;5073313;28;20208;-32
2023/06/23 03:28:31;;;;;;;100.72;90.20;;;18.40;99.90;;;;;;5042727;28;20207;-32
2023/06/23 03:31:11;;;;;;;111.38;99.45;;;18.40;99.90;;;;;;5057921;28;20823;-32
2023/06/23 03:33:45;;;;;;;109.50;97.97;;;18.40;99.90;;;;;;5042510;28;20717;-32
2023/06/23 03:36:19;;;;;;;126.78;111.30;;;18.30;99.90;;;;;;5073070;28;20289;-32
2023/06/23 03:39:12;;;;;;;151.82;127.28;;;18.30;99.90;;;;;;5042425;28;20223;-32
2023/06/23 03:41:41;;;;;;;164.15;135.88;;;18.30;99.90;;;;;;5042187;28;20196;-32
2023/06/23 03:44:20;;;;;;;179.93;139.68;;;18.30;99.90;;;;;;5042631;28;20211;-32
2023/06/23 03:46:54;;;;;;;191.18;148.48;;;18.30;99.90;;;;;;5073951;28;20281;-32
2023/06/23 03:49:33;;;;;;;184.90;148.18;;;18.30;99.90;;;;;;5042541;28;20277;-32
2023/06/23 03:52:08;;;;;;;180.15;133.38;;;18.30;99.90;;;;;;5042610;28;20335;-32
2023/06/23 03:54:39;;;;;;;155.13;110.63;;;18.30;99.90;;;;;;5058801;28;20196;-32
2023/06/23 03:57:09;;;;;;;149.52;111.20;;;18.30;99.90;;;;;;5060965;28;20219;-32
2023/06/23 03:59:40;;;;;;;122.50;88.93;;;18.30;99.90;;;;;;5044352;28;20652;-32
2023/06/23 04:02:12;;;;;;;89.13;65.63;;;18.30;99.90;;;;;;5060786;28;20213;-32
2023/06/23 04:04:46;;;;;;;75.32;55.78;;;18.40;99.90;;;;;;5046266;28;20201;-32
2023/06/23 04:07:18;;;;;;;63.38;46.78;;;18.40;99.90;;;;;;5045994;28;20208;-32
2023/06/23 04:09:48;;;;;;;47.90;37.40;;;18.40;99.90;;;;;;5045728;28;20201;-32
2023/06/23 04:12:17;;;;;;;44.30;34.75;;;18.40;99.90;;;;;;5045742;28;20212;-32
2023/06/23 04:14:47;;;;;;;40.40;31.88;;;18.40;99.90;;;;;;5044174;28;20204;-32
2023/06/23 04:17:17;;;;;;;38.05;29.45;;;18.40;99.90;;;;;;5060839;28;20219;-32
2023/06/23 04:19:48;;;;;;;36.90;28.23;;;18.40;99.90;;;;;;5060532;28;20228;-32
2023/06/23 04:22:18;;;;;;;36.80;27.20;;;18.50;99.90;;;;;;5077531;28;20243;-32
2023/06/23 04:24:46;;;;;;;33.38;24.85;;;18.50;99.90;;;;;;5060154;28;20815;-32
2023/06/23 04:27:20;;;;;;;30.33;24.15;;;18.50;99.90;;;;;;5060161;28;20203;-32
2023/06/23 04:29:49;;;;;;;32.05;23.95;;;18.50;99.90;;;;;;5045634;28;20431;-32
2023/06/23 04:32:17;;;;;;;26.38;21.92;;;18.50;99.90;;;;;;5045464;28;20209;-32
2023/06/23 04:34:44;;;;;;;27.40;22.60;;;18.50;99.90;;;;;;5045214;28;20596;-32
2023/06/23 04:37:17;;;;;;;27.35;21.92;;;18.50;99.90;;;;;;5060296;28;20563;-32
2023/06/23 04:39:59;;;;;;;27.45;21.23;;;18.60;99.90;;;;;;5060140;28;20251;-32
2023/06/23 04:42:49;;;;;;;30.25;22.67;;;18.60;99.90;;;;;;5044885;28;20602;-32
2023/06/23 04:45:22;;;;;;;27.42;21.45;;;18.60;99.90;;;;;;5060192;28;20196;-32
2023/06/23 04:48:01;;;;;;;25.17;21.50;;;18.70;99.90;;;;;;5044840;28;20237;-32
2023/06/23 04:50:34;;;;;;;25.67;20.77;;;18.70;99.90;;;;;;5045020;28;20285;-32
2023/06/23 04:53:15;;;;;;;28.48;21.55;;;18.70;99.90;;;;;;5060285;28;20364;-32
2023/06/23 04:55:51;;;;;;;28.02;21.33;;;18.70;99.90;;;;;;5059966;28;20230;-32
2023/06/23 04:58:20;;;;;;;24.35;20.60;;;18.70;99.90;;;;;;5059984;28;20220;-32
2023/06/23 05:00:51;;;;;;;27.73;21.73;;;18.70;99.90;;;;;;5059146;28;20189;-33
2023/06/23 05:03:20;;;;;;;25.25;21.98;;;18.80;99.90;;;;;;5044687;28;20200;-32
2023/06/23 05:05:52;;;;;;;25.27;21.13;;;18.80;99.90;;;;;;5059395;28;20779;-32
2023/06/23 05:08:25;;;;;;;28.73;21.30;;;18.80;99.90;;;;;;5045307;28;20210;-32
2023/06/23 05:10:59;;;;;;;28.55;21.65;;;18.90;99.90;;;;;;5059631;28;20262;-32
2023/06/23 05:13:29;;;;;;;31.85;23.15;;;18.90;99.90;;;;;;5044440;28;20215;-32
2023/06/23 05:15:58;;;;;;;27.27;22.90;;;18.90;99.90;;;;;;5044322;28;20291;-32
2023/06/23 05:18:29;;;;;;;30.27;23.33;;;18.90;99.90;;;;;;5059281;28;20573;-32
2023/06/23 05:21:04;;;;;;;29.75;23.83;;;18.90;99.90;;;;;;5044150;28;20299;-32
2023/06/23 05:23:36;;;;;;;34.03;24.73;;;19.00;99.90;;;;;;5044236;28;20262;-32
2023/06/23 05:26:22;;;;;;;31.45;24.77;;;19.00;99.90;;;;;;5044487;28;20232;-32
2023/06/23 05:28:52;;;;;;;29.40;24.67;;;19.00;99.90;;;;;;5075789;28;20208;-32
2023/06/23 05:31:27;;;;;;;30.60;24.77;;;19.10;99.90;;;;;;5044291;28;20612;-32
2023/06/23 05:34:02;;;;;;;30.75;23.70;;;19.10;99.90;;;;;;5044283;28;20568;-32
2023/06/23 05:36:32;;;;;;;28.83;23.55;;;19.10;99.90;;;;;;5041879;28;20613;-32
2023/06/23 05:39:01;;;;;;;33.53;26.30;;;19.20;99.90;;;;;;5044096;28;20694;-32
2023/06/23 05:41:33;;;;;;;32.28;24.65;;;19.20;99.90;;;;;;5058355;28;20196;-32
2023/06/23 05:44:05;;;;;;;33.88;25.63;;;19.30;99.90;;;;;;5044103;28;20224;-32
2023/06/23 05:46:39;;;;;;;35.35;24.98;;;19.30;99.90;;;;;;5058340;28;20617;-32
2023/06/23 05:49:12;;;;;;;32.85;25.75;;;19.30;99.90;;;;;;5044160;28;20203;-32
2023/06/23 05:51:42;;;;;;;40.38;26.98;;;19.30;99.90;;;;;;5075618;28;20820;-32
2023/06/23 05:54:16;;;;;;;38.22;26.75;;;19.30;99.90;;;;;;5043805;28;20196;-32
2023/06/23 05:56:54;;;;;;;32.08;24.70;;;19.40;99.90;;;;;;5043742;28;20219;-32
2023/06/23 05:59:41;;;;;;;30.55;25.05;;;19.40;99.90;;;;;;5043732;28;20891;-32
2023/06/23 06:02:17;;;;;;;30.35;25.20;;;19.40;99.90;;;;;;5043808;28;20202;-32
2023/06/23 06:04:50;;;;;;;35.45;27.33;;;19.40;99.90;;;;;;5058580;28;20200;-32
2023/06/23 06:07:19;;;;;;;38.92;28.42;;;19.50;99.90;;;;;;5043986;28;20513;-32
2023/06/23 06:09:51;;;;;;;39.72;30.15;;;19.50;99.90;;;;;;5059277;28;20246;-32
2023/06/23 06:12:19;;;;;;;36.58;28.67;;;19.50;99.90;;;;;;5075790;28;20258;-32
2023/06/23 06:14:53;;;;;;;43.80;30.35;;;19.60;99.90;;;;;;5059236;28;20760;-32
2023/06/23 06:17:23;;;;;;;40.35;29.63;;;19.60;99.90;;;;;;5043499;28;20606;-32
2023/06/23 06:19:55;;;;;;;39.30;29.02;;;19.60;99.90;;;;;;5044033;28;20232;-32
2023/06/23 06:22:27;;;;;;;37.85;29.55;;;19.60;99.90;;;;;;5044047;28;20236;-32
2023/06/23 06:24:57;;;;;;;36.45;27.25;;;19.70;99.90;;;;;;5042443;28;20951;-32
2023/06/23 06:27:30;;;;;;;37.92;27.92;;;19.70;99.90;;;;;;5044145;28;20524;-32
2023/06/23 06:29:58;;;;;;;34.15;27.67;;;19.70;99.90;;;;;;5044054;28;20254;-32
2023/06/23 06:32:32;;;;;;;35.42;26.10;;;19.70;99.90;;;;;;5058912;28;20193;-32
2023/06/23 06:35:04;;;;;;;32.15;26.10;;;19.70;99.90;;;;;;5042502;28;20210;-32
2023/06/23 06:37:47;;;;;;;30.67;25.83;;;19.70;99.90;;;;;;5059003;28;20299;-32
2023/06/23 06:40:21;;;;;;;29.40;24.40;;;19.70;99.90;;;;;;5043616;28;20224;-32
2023/06/23 06:42:53;;;;;;;29.52;24.17;;;19.70;99.90;;;;;;5043890;28;20627;-32
2023/06/23 06:45:23;;;;;;;28.85;23.42;;;19.70;99.90;;;;;;5059300;28;20587;-32
2023/06/23 06:47:53;;;;;;;29.83;24.45;;;19.80;99.90;;;;;;5058587;28;20246;-32
2023/06/23 06:50:24;;;;;;;25.40;21.55;;;19.80;99.90;;;;;;5057922;28;20624;-32
2023/06/23 06:52:56;;;;;;;22.52;18.10;;;19.80;99.90;;;;;;5042673;28;20201;-32
2023/06/23 06:55:28;;;;;;;23.42;20.83;;;19.80;99.90;;;;;;5042923;28;20207;-32
2023/06/23 06:57:58;;;;;;;23.13;19.45;;;19.90;99.90;;;;;;5074390;28;20204;-33
2023/06/23 07:00:26;;;;;;;23.13;20.33;;;19.90;99.90;;;;;;5042670;28;20236;-32
2023/06/23 07:02:58;;;;;;;22.33;19.48;;;19.90;99.90;;;;;;5056992;28;20199;-32
2023/06/23 07:05:28;;;;;;;19.92;17.02;;;19.90;99.90;;;;;;5057604;28;20646;-32
2023/06/23 07:07:55;;;;;;;20.88;17.25;;;19.90;99.90;;;;;;5042549;28;20216;-32
2023/06/23 07:10:23;;;;;;;19.05;16.73;;;20.00;99.90;;;;;;5057218;28;20223;-32
2023/06/23 07:12:50;;;;;;;19.20;16.48;;;20.00;99.90;;;;;;5057512;28;20200;-32
2023/06/23 07:15:17;;;;;;;18.50;16.15;;;20.00;99.90;;;;;;5057866;28;20262;-32
2023/06/23 07:17:44;;;;;;;20.23;17.73;;;20.10;99.90;;;;;;5042595;28;20210;-33
2023/06/23 07:20:12;;;;;;;19.50;15.52;;;20.10;99.90;;;;;;5057047;28;20232;-25
2023/06/23 07:22:39;;;;;;;20.08;15.60;;;20.10;99.90;;;;;;5056982;28;20248;-25
2023/06/23 07:25:09;;;;;;;15.18;13.57;;;20.20;99.90;;;;;;5041720;28;20200;-25
2023/06/23 07:27:39;;;;;;;16.17;13.48;;;20.20;99.90;;;;;;5057129;28;20279;-25
2023/06/23 07:30:07;;;;;;;16.75;13.15;;;20.20;99.90;;;;;;5044678;28;20535;-25
2023/06/23 07:32:34;;;;;;;17.38;12.82;;;20.20;99.90;;;;;;5061156;28;20204;-25
2023/06/23 07:35:03;;;;;;;15.70;13.18;;;20.20;99.90;;;;;;5045906;28;20303;-25
2023/06/23 07:37:30;;;;;;;16.25;13.07;;;20.20;99.90;;;;;;5061068;28;20757;-25
2023/06/23 07:39:57;;;;;;;17.27;13.35;;;20.20;99.90;;;;;;5046442;28;20239;-25
2023/06/23 07:42:26;;;;;;;16.50;11.90;;;20.30;99.90;;;;;;5045325;28;20207;-25
2023/06/23 07:44:56;;;;;;;15.35;11.75;;;20.30;99.90;;;;;;5045525;28;20238;-25
2023/06/23 07:47:26;;;;;;;16.98;12.10;;;20.30;99.90;;;;;;5061043;28;20246;-25
2023/06/23 07:49:58;;;;;;;12.52;11.18;;;20.30;99.90;;;;;;5061044;28;20277;-25
2023/06/23 07:52:27;;;;;;;13.00;11.50;;;20.40;99.90;;;;;;5077066;28;20617;-25
2023/06/23 07:54:59;;;;;;;15.88;13.35;;;20.40;99.90;;;;;;5060661;28;20295;-25
2023/06/23 07:57:29;;;;;;;16.48;13.05;;;20.40;99.90;;;;;;5044903;28;20207;-25
2023/06/23 07:59:56;;;;;;;15.18;13.00;;;20.40;99.90;;;;;;5060249;28;20232;-25
2023/06/23 08:02:25;;;;;;;16.38;13.80;;;20.50;99.90;;;;;;5060193;28;20204;-25
2023/06/23 08:04:55;;;;;;;14.68;12.38;;;20.50;99.90;;;;;;5045997;28;20204;-25
2023/06/23 08:07:22;;;;;;;14.15;11.68;;;20.50;99.90;;;;;;5060479;28;20204;-25
2023/06/23 08:09:49;;;;;;;17.65;13.18;;;20.50;99.90;;;;;;5045150;28;20670;-25
2023/06/23 08:12:19;;;;;;;13.85;11.35;;;20.50;99.90;;;;;;5045023;28;20247;-25
2023/06/23 08:14:46;;;;;;;13.02;11.20;;;20.50;99.90;;;;;;5060524;28;20519;-25
2023/06/23 08:17:13;;;;;;;15.13;11.48;;;20.60;99.90;;;;;;5060135;28;20224;-25
2023/06/23 08:19:43;;;;;;;13.18;11.38;;;20.60;99.90;;;;;;5059887;28;20212;-25
2023/06/23 08:22:11;;;;;;;15.35;12.73;;;20.70;99.90;;;;;;5044608;28;20242;-25
2023/06/23 08:24:38;;;;;;;14.80;12.85;;;20.70;99.90;;;;;;5058867;28;20192;-25
2023/06/23 08:27:08;;;;;;;13.88;11.55;;;20.70;99.90;;;;;;5044080;28;20274;-25
2023/06/23 08:29:37;;;;;;;14.07;10.73;;;20.70;99.90;;;;;;5058967;28;20717;-25
2023/06/23 08:32:07;;;;;;;14.13;10.70;;;20.80;99.90;;;;;;5043678;28;20604;-25
2023/06/23 08:34:36;;;;;;;17.48;12.95;;;20.80;99.90;;;;;;5043810;28;20216;-25
2023/06/23 08:37:04;;;;;;;15.18;11.10;;;20.80;99.90;;;;;;5043999;28;20575;-25
2023/06/23 08:39:36;;;;;;;13.70;12.02;;;20.90;99.90;;;;;;5058366;28;20373;-24
2023/06/23 08:42:08;;;;;;;12.70;10.90;;;20.90;99.90;;;;;;5058568;28;20201;-24
2023/06/23 08:44:37;;;;;;;12.48;10.32;;;20.90;99.90;;;;;;5059224;28;20196;-25
2023/06/23 08:47:12;;;;;;;13.18;10.25;;;20.90;99.90;;;;;;5058782;28;20208;-24
2023/06/23 08:49:42;;;;;;;10.38;9.05;;;21.00;99.90;;;;;;5043870;28;20609;-25
2023/06/23 08:52:10;;;;;;;11.88;9.45;;;21.00;99.90;;;;;;5043743;28;20215;-24
2023/06/23 08:54:40;;;;;;;10.93;9.65;;;21.00;99.90;;;;;;5043659;28;20215;-25
2023/06/23 08:57:08;;;;;;;11.02;9.82;;;21.10;99.90;;;;;;5043337;28;20200;-24
2023/06/23 08:59:40;;;;;;;12.57;10.70;;;21.10;99.90;;;;;;5043654;28;20216;-25
2023/06/23 09:02:12;;;;;;;12.82;9.80;;;21.10;99.90;;;;;;5074115;28;20204;-25
2023/06/23 09:04:42;;;;;;;11.38;9.48;;;21.10;99.90;;;;;;5042303;28;20291;-24
2023/06/23 09:07:09;;;;;;;13.10;10.23;;;21.20;99.90;;;;;;5043255;28;20193;-25
2023/06/23 09:09:40;;;;;;;13.27;11.05;;;21.20;99.90;;;;;;5057988;28;20547;-24
2023/06/23 09:12:11;;;;;;;12.73;11.43;;;21.30;99.90;;;;;;5043728;28;20200;-32
2023/06/23 09:14:39;;;;;;;13.32;10.77;;;21.30;99.90;;;;;;5041572;28;20210;-32
2023/06/23 09:17:08;;;;;;;15.88;13.13;;;21.40;99.90;;;;;;5057950;28;20200;-32
2023/06/23 09:19:42;;;;;;;15.63;12.38;;;21.40;99.90;;;;;;5057889;28;20339;-33
2023/06/23 09:22:10;;;;;;;15.10;10.95;;;21.40;99.90;;;;;;5004951;28;1097830;-33
2023/06/23 09:24:43;;;;;;;15.70;11.85;;;21.50;99.90;;;;;;5044068;28;20550;-32
2023/06/23 09:27:11;;;;;;;10.73;9.63;;;21.50;99.90;;;;;;5044000;28;20284;-33
2023/06/23 09:29:41;;;;;;;14.80;12.05;;;21.60;99.90;;;;;;5058672;28;20580;-33
2023/06/23 09:32:10;;;;;;;14.68;11.80;;;21.60;99.90;;;;;;5043873;28;20231;-33
2023/06/23 09:34:38;;;;;;;14.25;12.20;;;21.60;99.90;;;;;;5043972;28;20269;-33
2023/06/23 09:37:16;;;;;;;12.98;10.27;;;21.60;99.90;;;;;;5044193;28;20206;-33
2023/06/23 09:39:49;;;;;;;11.73;10.10;;;21.60;99.90;;;;;;5044360;28;20289;-33
2023/06/23 09:42:24;;;;;;;11.25;10.07;;;21.70;99.90;;;;;;5042275;28;20196;-33
2023/06/23 09:44:54;;;;;;;11.13;9.57;;;21.70;99.90;;;;;;5043835;28;20201;-33
2023/06/23 09:47:21;;;;;;;15.40;11.45;;;21.80;99.90;;;;;;5041828;28;20666;-33
2023/06/23 09:49:51;;;;;;;13.00;10.45;;;21.80;99.90;;;;;;5043474;28;20262;-32
2023/06/23 09:52:28;;;;;;;11.70;9.40;;;21.80;99.90;;;;;;5074434;28;20652;-33
2023/06/23 09:54:58;;;;;;;12.02;9.45;;;21.90;99.90;;;;;;5043785;28;20305;-32
2023/06/23 09:57:29;;;;;;;13.30;10.38;;;21.90;99.90;;;;;;5043284;28;20196;-33
2023/06/23 10:00:00;;;;;;;13.68;10.35;;;22.00;99.90;;;;;;5043522;28;20620;-33
2023/06/23 10:02:29;;;;;;;12.95;10.10;;;22.00;99.90;;;;;;5074533;28;20255;-33
2023/06/23 10:05:06;;;;;;;10.82;8.50;;;22.10;99.90;;;;;;5043335;28;20192;-33
2023/06/23 10:07:36;;;;;;;11.98;9.00;;;22.10;99.90;;;;;;5043324;28;20204;-33
2023/06/23 10:10:07;;;;;;;10.82;8.77;;;22.10;99.90;;;;;;5041306;28;20211;-33
2023/06/23 10:12:39;;;;;;;8.02;6.78;;;22.10;99.90;;;;;;5043121;28;20199;-33
2023/06/23 10:15:10;;;;;;;8.68;7.05;;;22.20;99.90;;;;;;5043666;28;20201;-33
2023/06/23 10:17:41;;;;;;;9.40;7.85;;;22.20;99.90;;;;;;5025203;28;20215;-34
2023/06/23 10:20:13;;;;;;;9.05;8.15;;;22.20;99.90;;;;;;5057487;28;20315;-33
2023/06/23 10:22:46;;;;;;;11.20;9.45;;;22.30;99.90;;;;;;5024675;28;20236;-33
2023/06/23 10:25:14;;;;;;;10.82;9.35;;;22.30;99.90;;;;;;5057510;28;20235;-33
2023/06/23 10:27:47;;;;;;;9.07;7.43;;;22.30;99.90;;;;;;5042757;28;20686;-33
2023/06/23 10:30:17;;;;;;;9.02;7.20;;;22.30;99.90;;;;;;5043683;28;20561;-34
2023/06/23 10:32:55;;;;;;;9.80;8.07;;;22.40;99.90;;;;;;5042761;28;20580;-33
2023/06/23 10:35:25;;;;;;;8.50;7.40;;;22.40;99.90;;;;;;5057650;28;20584;-33
2023/06/23 10:38:04;;;;;;;9.15;7.10;;;22.50;99.90;;;;;;5042387;28;20681;-34
2023/06/23 10:40:45;;;;;;;8.45;6.78;;;22.50;99.90;;;;;;5042640;28;20713;-33
2023/06/23 10:43:18;;;;;;;8.88;7.28;;;22.50;99.90;;;;;;5057690;28;20303;-35
2023/06/23 10:45:45;;;;;;;8.73;7.30;;;22.50;99.90;;;;;;5042714;28;20204;-32
2023/06/23 10:48:15;;;;;;;9.63;6.65;;;22.50;99.90;;;;;;5042371;28;20200;-33
2023/06/23 10:50:47;;;;;;;6.45;5.57;;;22.60;99.90;;;;;;5042330;28;20319;-32
2023/06/23 10:53:18;;;;;;;7.00;5.43;;;22.60;99.90;;;;;;5042496;28;20197;-32
2023/06/23 10:55:56;;;;;;;5.50;4.90;;;22.60;99.90;;;;;;5042319;28;20216;-32
2023/06/23 10:58:51;;;;;;;5.88;5.25;;;22.60;99.90;;;;;;5056146;28;20585;-32
2023/06/23 11:01:22;;;;;;;10.80;6.85;;;22.70;99.90;;;;;;5042350;28;20263;-33
2023/06/23 11:03:58;;;;;;;6.32;5.30;;;22.60;99.90;;;;;;5042881;28;20196;-32
2023/06/23 11:06:34;;;;;;;6.97;4.88;;;22.60;99.90;;;;;;5042610;28;20235;-32
2023/06/23 11:09:04;;;;;;;4.97;4.22;;;22.70;99.90;;;;;;5041916;28;20713;-32
2023/06/23 11:11:33;;;;;;;6.50;5.03;;;22.80;99.90;;;;;;5057659;28;20242;-33
2023/06/23 11:14:03;;;;;;;5.60;4.78;;;22.80;99.90;;;;;;5042804;28;20307;-33
2023/06/23 11:16:34;;;;;;;5.30;4.75;;;22.80;99.90;;;;;;5042985;28;20281;-32
2023/06/23 11:19:07;;;;;;;6.35;5.00;;;22.80;99.90;;;;;;5043057;28;20207;-32
2023/06/23 11:21:44;;;;;;;7.25;4.68;;;22.90;99.90;;;;;;5040592;28;20266;-32
2023/06/23 11:24:19;;;;;;;7.90;4.78;;;23.00;99.90;;;;;;5042865;28;20196;-32
2023/06/23 11:26:51;;;;;;;6.65;4.85;;;23.00;99.90;;;;;;5042812;28;20242;-32
2023/06/23 11:29:20;;;;;;;4.22;3.80;;;23.00;99.90;;;;;;5042442;28;20211;-32
2023/06/23 11:32:19;;;;;;;6.47;4.63;;;23.00;99.90;;;;;;5042923;28;20208;-32
2023/06/23 11:34:56;;;;;;;7.95;4.85;;;23.10;99.90;;;;;;5042707;28;20196;-32
2023/06/23 11:37:36;;;;;;;5.97;5.07;;;23.10;99.90;;;;;;5057364;28;20196;-32
2023/06/23 11:40:08;;;;;;;4.32;3.92;;;23.20;99.90;;;;;;5041119;28;20226;-32
2023/06/23 11:42:43;;;;;;;5.30;4.50;;;23.20;99.90;;;;;;5057718;28;20195;-32
2023/06/23 11:45:10;;;;;;;6.05;4.93;;;23.20;99.90;;;;;;5042764;28;20231;-32
2023/06/23 11:47:38;;;;;;;6.85;5.03;;;23.30;99.90;;;;;;5057070;28;20220;-33
2023/06/23 11:50:09;;;;;;;5.72;4.15;;;23.40;99.90;;;;;;5040792;28;20315;-33
2023/06/23 11:52:38;;;;;;;5.13;3.95;;;23.50;99.90;;;;;;5042023;28;20766;-32
2023/06/23 11:55:08;;;;;;;5.70;4.20;;;23.40;99.90;;;;;;5042725;28;20200;-32
2023/06/23 11:57:40;;;;;;;5.25;4.55;;;23.50;99.90;;;;;;5042330;28;20213;-32
2023/06/23 12:00:11;;;;;;;5.68;4.80;;;23.50;99.90;;;;;;5040610;28;20220;-32
2023/06/23 12:02:38;;;;;;;6.03;4.72;;;23.50;99.90;;;;;;5040795;28;20271;-32
2023/06/23 12:05:08;;;;;;;5.65;5.13;;;23.50;99.90;;;;;;5042276;28;20196;-32
2023/06/23 12:07:36;;;;;;;5.35;4.82;;;23.60;99.90;;;;;;5057240;28;20207;-32
2023/06/23 12:10:06;;;;;;;5.07;4.65;;;23.60;99.90;;;;;;5056525;28;20201;-32
2023/06/23 12:12:34;;;;;;;5.65;4.35;;;23.70;99.90;;;;;;5042198;28;20215;-32
2023/06/23 12:15:01;;;;;;;7.53;5.72;;;23.70;99.90;;;;;;5043084;28;20595;-32
2023/06/23 12:17:30;;;;;;;6.85;5.05;;;23.70;99.90;;;;;;5060361;28;20216;-32
2023/06/23 12:19:58;;;;;;;5.35;4.80;;;23.80;99.90;;;;;;5060642;28;20212;-32
2023/06/23 12:22:35;;;;;;;5.30;4.80;;;23.80;99.90;;;;;;5044979;28;20232;-32
2023/06/23 12:25:05;;;;;;;6.55;5.00;;;23.90;99.90;;;;;;5045677;28;20649;-32
2023/06/23 12:27:32;;;;;;;7.13;4.38;;;23.90;99.90;;;;;;5045686;28;20542;-32
2023/06/23 12:30:16;;;;;;;5.85;4.53;;;23.90;99.90;;;;;;5045527;28;20231;-32
2023/06/23 12:32:48;;;;;;;4.88;4.40;;;24.00;99.90;;;;;;5060310;28;20204;-32
2023/06/23 12:35:18;;;;;;;4.90;4.43;;;24.00;99.90;;;;;;5060297;28;20204;-32
2023/06/23 12:37:48;;;;;;;7.03;4.10;;;24.00;99.90;;;;;;5059803;28;20207;-32
2023/06/23 12:40:32;;;;;;;5.70;4.10;;;24.10;99.90;;;;;;5045669;28;20251;-32
2023/06/23 12:43:01;;;;;;;5.05;4.10;;;24.20;99.90;;;;;;5045396;28;20519;-32
2023/06/23 12:45:32;;;;;;;5.68;3.72;;;24.20;99.90;;;;;;5044921;28;20200;-33
2023/06/23 12:48:03;;;;;;;7.07;5.18;;;24.30;99.90;;;;;;5076764;28;20879;-32
2023/06/23 12:50:37;;;;;;;5.70;4.63;;;24.30;99.90;;;;;;5043831;28;20200;-32
2023/06/23 12:53:04;;;;;;;4.55;4.15;;;24.30;99.90;;;;;;5045655;28;20274;-33
2023/06/23 12:55:34;;;;;;;7.38;5.13;;;24.30;99.90;;;;;;5045679;28;20751;-33